Terminal Aerodrome Forecast
Issued by NWS

Home | Current Version | Previous Version | Text Only | Print | Product List | Glossary On
Versions: 1 2 3 4 5 6 7 8 9 10 11 12 13 14 15
000
FTUS43 KMQT 032057 AAC
TAFIWD
TAF AMD
KIWD 032057Z 0321/0418 31011KT P6SM VCSH BKN080
     FM040000 30004KT P6SM BKN060
     FM040200 28004KT P6SM SCT080
     FM041100 31006KT P6SM SKC
      AMD LTD TO CLD VIS AND WIND=

USA.gov is the U.S. government's official web portal to all federal, state and local government web resources and services.